Time;durP1;ratioP1;P1;durP2;ratioP2;P2;SDS_P1;SDS_P2;PMS_P1;PMS_P2;Temp;Humidity;BMP_temperature;BMP_pressure;BME280_temperature;BME280_humidity;BME280_pressure;Samples;Min_cycle;Max_cycle;Signal;HPM_P1;HPM_P2
2022/08/16 00:01:30;;;;;;;7.22;3.72;;;;;;;17.48;100.00;95823.75;4967000;28;20047;-75
2022/08/16 00:03:55;;;;;;;7.45;3.67;;;;;;;17.48;100.00;95820.25;4970185;28;20046;-74
2022/08/16 00:06:21;;;;;;;7.55;3.60;;;;;;;17.38;100.00;95826.72;4965944;28;20653;-74
2022/08/16 00:08:47;;;;;;;7.63;3.80;;;;;;;17.41;100.00;95831.50;4967560;28;20439;-74
2022/08/16 00:11:13;;;;;;;5.53;3.25;;;;;;;17.36;100.00;95830.84;4968697;28;20034;-74
2022/08/16 00:13:38;;;;;;;5.93;3.60;;;;;;;17.28;100.00;95829.69;4968328;28;20169;-74
2022/08/16 00:16:04;;;;;;;7.15;3.72;;;;;;;17.32;100.00;95838.75;4966004;28;20038;-74
2022/08/16 00:18:30;;;;;;;7.63;3.83;;;;;;;17.34;100.00;95841.16;4967811;28;20042;-74
2022/08/16 00:20:56;;;;;;;6.43;3.30;;;;;;;17.37;100.00;95838.66;4966847;28;20049;-74
2022/08/16 00:23:22;;;;;;;7.20;3.30;;;;;;;17.42;100.00;95843.91;4967678;28;20042;-75
2022/08/16 00:25:47;;;;;;;6.93;3.38;;;;;;;17.46;100.00;95847.63;4968254;28;20057;-74
2022/08/16 00:28:13;;;;;;;7.30;3.83;;;;;;;17.37;100.00;95843.25;4969815;28;20197;-74
2022/08/16 00:30:39;;;;;;;7.50;3.30;;;;;;;17.34;100.00;95851.97;4967291;28;20125;-74
2022/08/16 00:33:05;;;;;;;8.15;3.67;;;;;;;17.35;100.00;95843.53;4980431;28;20485;-74
2022/08/16 00:35:34;;;;;;;6.55;3.08;;;;;;;17.28;100.00;95840.50;4982385;28;20046;-74
2022/08/16 00:38:03;;;;;;;6.68;3.17;;;;;;;17.34;100.00;95841.94;4968262;28;20128;-75
2022/08/16 00:40:44;;;;;;;7.30;3.78;;;;;;;17.37;100.00;95840.56;4968690;28;20061;-74
2022/08/16 00:43:19;;;;;;;9.95;3.88;;;;;;;17.39;100.00;95839.13;4968319;28;20050;-74
2022/08/16 00:46:06;;;;;;;6.43;3.60;;;;;;;17.39;100.00;95832.94;4966864;28;20168;-74
2022/08/16 00:48:32;;;;;;;6.07;3.58;;;;;;;17.33;100.00;95836.84;4969048;28;20135;-74
2022/08/16 00:51:02;;;;;;;8.25;3.75;;;;;;;17.34;100.00;95841.16;4968675;28;20502;-73
2022/08/16 00:53:29;;;;;;;7.70;3.85;;;;;;;17.35;100.00;95835.44;4969054;28;20596;-74
2022/08/16 00:55:57;;;;;;;6.72;3.38;;;;;;;17.37;100.00;95844.06;4966806;28;20290;-74
2022/08/16 00:58:31;;;;;;;6.30;3.40;;;;;;;17.38;100.00;95842.94;4967902;28;20302;-75
2022/08/16 01:00:57;;;;;;;8.15;3.70;;;;;;;17.39;100.00;95838.34;4983967;28;20046;-74
2022/08/16 01:03:26;;;;;;;6.13;3.30;;;;;;;17.46;100.00;95830.59;4969951;28;20564;-74
2022/08/16 01:05:53;;;;;;;8.85;3.33;;;;;;;17.48;100.00;95831.88;4966674;28;20142;-74
2022/08/16 01:08:22;;;;;;;8.25;3.58;;;;;;;17.50;100.00;95837.78;4966875;28;20108;-74
2022/08/16 01:10:50;;;;;;;7.20;3.50;;;;;;;17.46;100.00;95827.91;4968147;28;20052;-74
2022/08/16 01:13:22;;;;;;;6.97;3.55;;;;;;;17.49;100.00;95828.06;4969613;28;20061;-74
2022/08/16 01:16:11;;;;;;;7.32;3.92;;;;;;;17.51;100.00;95830.50;4970254;28;20039;-74
2022/08/16 01:18:45;;;;;;;9.65;4.00;;;;;;;17.48;100.00;95839.19;4974505;28;20094;-75
2022/08/16 01:21:51;;;;;;;9.20;3.63;;;;;;;17.44;100.00;95836.31;4970752;28;20125;-74
2022/08/16 01:24:28;;;;;;;6.80;3.60;;;;;;;17.45;100.00;95839.81;4960133;28;20047;-74
2022/08/16 01:26:59;;;;;;;7.30;3.53;;;;;;;17.47;100.00;95838.41;4969382;28;20557;-74
2022/08/16 01:29:36;;;;;;;7.20;3.85;;;;;;;17.46;100.00;95846.81;4988099;28;20107;-74
2022/08/16 01:32:02;;;;;;;7.00;4.10;;;;;;;17.40;100.00;95843.44;4968649;28;20092;-74
2022/08/16 01:34:28;;;;;;;7.70;3.60;;;;;;;17.41;100.00;95849.63;4970737;28;20047;-74
2022/08/16 01:37:01;;;;;;;8.25;4.22;;;;;;;17.33;100.00;95840.34;4971534;28;20494;-74
2022/08/16 01:39:27;;;;;;;7.53;4.00;;;;;;;17.21;100.00;95838.19;4968323;28;20038;-75
2022/08/16 01:41:53;;;;;;;10.30;4.22;;;;;;;17.00;100.00;95847.88;4972869;28;20040;-74
2022/08/16 01:44:18;;;;;;;8.75;4.07;;;;;;;16.89;100.00;95847.28;4972013;28;20046;-74
2022/08/16 01:46:46;;;;;;;11.57;4.22;;;;;;;16.89;100.00;95841.88;4968796;28;20085;-74
2022/08/16 01:49:26;;;;;;;6.95;3.65;;;;;;;16.95;100.00;95839.84;4968133;28;20047;-75
2022/08/16 01:52:03;;;;;;;6.80;3.90;;;;;;;16.88;100.00;95837.56;4970052;28;20046;-74
2022/08/16 01:54:49;;;;;;;11.10;4.13;;;;;;;16.86;100.00;95847.09;4962508;28;20049;-74
2022/08/16 01:57:15;;;;;;;7.30;4.20;;;;;;;17.01;100.00;95841.34;4969629;28;20504;-74
2022/08/16 01:59:41;;;;;;;11.13;4.80;;;;;;;16.93;100.00;95847.47;4968679;28;20454;-74
2022/08/16 02:02:08;;;;;;;7.47;4.40;;;;;;;17.02;100.00;95844.84;4972360;28;20061;-75
2022/08/16 02:04:34;;;;;;;11.65;4.28;;;;;;;17.14;100.00;95840.53;4971287;28;20051;-74
2022/08/16 02:07:04;;;;;;;10.63;4.32;;;;;;;17.20;100.00;95835.81;4968595;28;20390;-75
2022/08/16 02:09:30;;;;;;;8.77;4.28;;;;;;;17.17;100.00;95831.00;4987747;28;20272;-74
2022/08/16 02:11:58;;;;;;;8.93;4.85;;;;;;;17.05;100.00;95841.56;4985183;28;20053;-74
2022/08/16 02:14:28;;;;;;;9.38;4.78;;;;;;;17.11;100.00;95821.41;4984796;28;20042;-74
2022/08/16 02:16:57;;;;;;;7.88;4.60;;;;;;;17.09;100.00;95819.00;4971686;28;20046;-74
2022/08/16 02:19:26;;;;;;;8.05;4.38;;;;;;;16.92;100.00;95816.94;4967589;28;20105;-74
2022/08/16 02:21:53;;;;;;;9.93;4.55;;;;;;;16.89;100.00;95814.88;4985528;28;20038;-74
2022/08/16 02:24:21;;;;;;;9.55;4.15;;;;;;;16.84;100.00;95819.56;4966413;28;20042;-74
2022/08/16 02:26:48;;;;;;;9.98;4.70;;;;;;;16.80;100.00;95816.66;4988051;28;20158;-74
2022/08/16 02:29:17;;;;;;;10.48;5.38;;;;;;;16.67;100.00;95820.19;4967723;28;20152;-74
2022/08/16 02:31:44;;;;;;;8.98;4.57;;;;;;;16.57;100.00;95820.38;4971882;28;20054;-74
2022/08/16 02:34:12;;;;;;;11.65;5.50;;;;;;;16.61;100.00;95830.28;4968072;28;20212;-74
2022/08/16 02:36:39;;;;;;;6.82;4.50;;;;;;;16.62;100.00;95825.69;4968506;28;20503;-74
2022/08/16 02:39:07;;;;;;;10.95;5.07;;;;;;;16.53;100.00;95819.38;4985655;28;20371;-74
2022/08/16 02:41:35;;;;;;;8.65;4.68;;;;;;;16.35;100.00;95827.31;4971527;28;20057;-74
2022/08/16 02:44:04;;;;;;;9.88;5.03;;;;;;;16.22;100.00;95819.19;4970164;28;20267;-74
2022/08/16 02:46:31;;;;;;;8.27;4.60;;;;;;;16.26;100.00;95814.78;4988016;28;20069;-74
2022/08/16 02:48:57;;;;;;;8.90;4.57;;;;;;;16.08;100.00;95828.06;4969410;28;20035;-74
2022/08/16 02:51:23;;;;;;;8.90;4.45;;;;;;;15.99;100.00;95823.66;4969188;28;21322;-74
2022/08/16 02:53:48;;;;;;;9.10;4.88;;;;;;;16.05;100.00;95823.28;4970395;28;20061;-74
2022/08/16 02:56:16;;;;;;;10.32;4.78;;;;;;;15.92;100.00;95829.44;4972667;28;20049;-74
2022/08/16 02:58:48;;;;;;;8.55;4.95;;;;;;;15.90;100.00;95817.38;4970686;28;20038;-74
2022/08/16 03:01:21;;;;;;;8.80;4.90;;;;;;;15.78;100.00;95831.31;4968377;28;20038;-74
2022/08/16 03:03:47;;;;;;;10.52;5.03;;;;;;;15.65;100.00;95835.59;4971648;28;20491;-74
2022/08/16 03:06:17;;;;;;;9.35;5.20;;;;;;;15.53;100.00;95840.59;4981670;28;20043;-74
2022/08/16 03:08:48;;;;;;;11.88;5.85;;;;;;;15.52;100.00;95839.00;4972022;28;20058;-74
2022/08/16 03:11:16;;;;;;;8.83;5.60;;;;;;;15.62;100.00;95840.75;4971744;28;20035;-74
2022/08/16 03:13:46;;;;;;;9.48;5.45;;;;;;;15.66;100.00;95831.00;4988347;28;20312;-74
2022/08/16 03:16:12;;;;;;;9.32;5.13;;;;;;;15.72;100.00;95832.50;4969487;28;20157;-74
2022/08/16 03:18:39;;;;;;;8.35;5.18;;;;;;;15.54;100.00;95829.53;4984315;28;20065;-74
2022/08/16 03:21:06;;;;;;;9.85;5.43;;;;;;;15.46;100.00;95822.09;4969751;28;20034;-74
2022/08/16 03:23:33;;;;;;;10.35;5.50;;;;;;;15.48;100.00;95832.59;4971238;28;20375;-74
2022/08/16 03:25:58;;;;;;;8.90;5.28;;;;;;;15.38;100.00;95835.47;4950981;28;20038;-74
2022/08/16 03:28:24;;;;;;;11.00;5.75;;;;;;;15.38;100.00;95840.84;4963887;28;20284;-74
2022/08/16 03:30:50;;;;;;;12.27;6.32;;;;;;;15.33;100.00;95833.66;4982358;28;20128;-74
2022/08/16 03:33:16;;;;;;;12.45;5.68;;;;;;;15.27;100.00;95824.84;4965369;28;20605;-74
2022/08/16 03:35:51;;;;;;;9.95;5.35;;;;;;;15.16;100.00;95828.78;4971413;28;20055;-74
2022/08/16 03:38:22;;;;;;;9.52;5.85;;;;;;;14.99;100.00;95836.56;4951087;28;20382;-74
2022/08/16 03:40:50;;;;;;;16.20;6.38;;;;;;;14.96;100.00;95842.56;4982723;28;20401;-74
2022/08/16 03:43:18;;;;;;;14.13;5.45;;;;;;;15.10;100.00;95838.03;4984171;28;20035;-74
2022/08/16 03:45:46;;;;;;;9.20;6.20;;;;;;;15.17;100.00;95835.75;4967740;28;20084;-74
2022/08/16 03:48:11;;;;;;;10.13;5.38;;;;;;;15.16;100.00;95839.56;4971305;28;20509;-74
2022/08/16 03:50:37;;;;;;;10.52;6.03;;;;;;;15.13;100.00;95829.38;4966321;28;20049;-74
2022/08/16 03:53:04;;;;;;;11.00;5.82;;;;;;;15.21;100.00;95828.69;4950675;28;20093;-74
2022/08/16 03:55:31;;;;;;;14.80;6.25;;;;;;;15.19;100.00;95827.41;4969955;28;20458;-74
2022/08/16 03:57:56;;;;;;;9.82;6.15;;;;;;;15.20;100.00;95835.19;4966747;28;20037;-74
2022/08/16 04:00:30;;;;;;;9.32;6.22;;;;;;;15.25;100.00;95847.78;4965510;28;20054;-74
2022/08/16 04:03:05;;;;;;;13.63;6.32;;;;;;;15.19;100.00;95844.38;4965840;28;20080;-74
2022/08/16 04:05:35;;;;;;;9.45;5.68;;;;;;;15.05;100.00;95852.38;4969070;28;20560;-74
2022/08/16 04:08:02;;;;;;;8.65;6.00;;;;;;;15.10;100.00;95851.53;4965768;28;20077;-74
2022/08/16 04:10:29;;;;;;;10.68;6.10;;;;;;;14.95;100.00;95849.03;4980583;28;20436;-74
2022/08/16 04:12:56;;;;;;;14.68;6.30;;;;;;;14.94;100.00;95842.84;4967425;28;20037;-74
2022/08/16 04:15:22;;;;;;;9.63;6.20;;;;;;;14.88;100.00;95843.22;4968893;28;20042;-74
2022/08/16 04:18:01;;;;;;;11.82;6.63;;;;;;;14.92;100.00;95860.38;4984036;28;20038;-74
2022/08/16 04:20:26;;;;;;;11.95;5.68;;;;;;;15.00;100.00;95857.03;4966024;28;20046;-74
2022/08/16 04:22:52;;;;;;;10.98;6.20;;;;;;;15.00;100.00;95855.13;4969564;28;20039;-74
2022/08/16 04:25:19;;;;;;;8.93;5.90;;;;;;;14.96;100.00;95858.72;4985701;28;20183;-74
2022/08/16 04:27:45;;;;;;;13.50;6.20;;;;;;;14.93;100.00;95864.66;4967115;28;20038;-74
2022/08/16 04:30:14;;;;;;;12.88;6.43;;;;;;;14.90;100.00;95874.13;4980335;28;20550;-74
2022/08/16 04:32:47;;;;;;;12.05;6.95;;;;;;;14.82;100.00;95873.97;4964401;28;20500;-74
2022/08/16 04:35:16;;;;;;;10.23;6.20;;;;;;;14.77;100.00;95869.44;4967958;28;20045;-73
2022/08/16 04:37:47;;;;;;;11.30;6.03;;;;;;;14.77;100.00;95872.94;4986266;28;20051;-74
2022/08/16 04:40:23;;;;;;;11.82;6.60;;;;;;;14.80;100.00;95874.28;4967040;28;20034;-74
2022/08/16 04:42:50;;;;;;;13.13;6.28;;;;;;;14.82;100.00;95877.47;4948808;28;20030;-73
2022/08/16 04:45:17;;;;;;;11.75;6.28;;;;;;;14.87;100.00;95879.31;4984640;28;20038;-74
2022/08/16 04:47:43;;;;;;;10.60;6.15;;;;;;;14.92;100.00;95877.34;4969718;28;20484;-74
2022/08/16 04:50:21;;;;;;;12.52;7.15;;;;;;;14.98;100.00;95876.19;4967826;28;20034;-74
2022/08/16 04:53:03;;;;;;;14.27;6.65;;;;;;;15.12;100.00;95875.47;4974161;28;20331;-74
2022/08/16 04:55:32;;;;;;;11.02;7.50;;;;;;;15.08;100.00;95879.81;4989578;28;20089;-74
2022/08/16 04:57:58;;;;;;;10.68;6.78;;;;;;;15.03;100.00;95876.13;4974823;28;20042;-74
2022/08/16 05:00:32;;;;;;;11.63;6.45;;;;;;;15.07;100.00;95884.41;4968446;28;20062;-74
2022/08/16 05:03:05;;;;;;;12.07;6.35;;;;;;;15.12;100.00;95886.25;4973053;28;20183;-74
2022/08/16 05:05:38;;;;;;;12.35;7.07;;;;;;;15.19;100.00;95875.91;4973317;28;20391;-74
2022/08/16 05:08:04;;;;;;;12.70;6.68;;;;;;;15.26;100.00;95871.75;4970981;28;20686;-74
2022/08/16 05:10:31;;;;;;;12.50;6.97;;;;;;;15.23;100.00;95876.91;4975122;28;20121;-75
2022/08/16 05:12:57;;;;;;;12.52;7.10;;;;;;;15.30;100.00;95877.34;4973365;28;20048;-74
2022/08/16 05:15:24;;;;;;;11.95;7.30;;;;;;;15.30;100.00;95880.03;4971398;28;20054;-74
2022/08/16 05:17:49;;;;;;;16.33;7.32;;;;;;;15.28;100.00;95880.34;4972995;28;20046;-74
2022/08/16 05:20:15;;;;;;;15.27;7.53;;;;;;;15.36;100.00;95888.88;4974418;28;20035;-74
2022/08/16 05:22:41;;;;;;;15.45;7.15;;;;;;;15.44;100.00;95882.81;4987316;28;20047;-74
2022/08/16 05:25:13;;;;;;;16.10;7.37;;;;;;;15.49;100.00;95891.63;4969876;28;20030;-74
2022/08/16 05:27:44;;;;;;;10.13;6.53;;;;;;;15.51;100.00;95894.03;4969552;28;20285;-74
2022/08/16 05:30:14;;;;;;;12.75;7.25;;;;;;;15.57;100.00;95898.25;4968008;28;20588;-73
2022/08/16 05:32:41;;;;;;;13.43;7.13;;;;;;;15.72;100.00;95895.34;4970509;28;20065;-73
2022/08/16 05:35:09;;;;;;;11.63;6.95;;;;;;;15.86;100.00;95898.88;4972828;28;20038;-73
2022/08/16 05:37:38;;;;;;;11.57;7.07;;;;;;;15.97;100.00;95906.81;4974380;28;20045;-74
2022/08/16 05:40:06;;;;;;;15.20;6.78;;;;;;;16.12;100.00;95901.16;4966917;28;20422;-74
2022/08/16 05:42:32;;;;;;;11.55;7.22;;;;;;;16.11;100.00;95908.47;4971636;28;20039;-74
2022/08/16 05:45:00;;;;;;;17.08;7.50;;;;;;;16.19;100.00;95906.97;4970111;28;20109;-74
2022/08/16 05:47:27;;;;;;;12.35;6.80;;;;;;;16.31;100.00;95914.56;4971443;28;20069;-74
2022/08/16 05:49:52;;;;;;;16.17;6.72;;;;;;;16.39;100.00;95908.50;4971096;28;20038;-74
2022/08/16 05:52:18;;;;;;;10.27;6.35;;;;;;;16.41;100.00;95917.88;4984786;28;20042;-74
2022/08/16 05:54:44;;;;;;;14.48;6.88;;;;;;;16.39;100.00;95914.69;4968033;28;20042;-74
2022/08/16 05:57:10;;;;;;;19.85;6.97;;;;;;;16.50;100.00;95915.31;4973495;28;20106;-73
2022/08/16 05:59:36;;;;;;;12.43;6.70;;;;;;;16.58;100.00;95916.53;4967741;28;20042;-73
2022/08/16 06:02:03;;;;;;;12.55;6.88;;;;;;;16.62;100.00;95912.09;4967324;28;20137;-74
2022/08/16 06:04:32;;;;;;;10.45;6.75;;;;;;;16.68;100.00;95905.50;4966388;28;20228;-74
2022/08/16 06:06:58;;;;;;;11.82;6.72;;;;;;;16.71;100.00;95910.34;4970069;28;20065;-74
2022/08/16 06:09:28;;;;;;;12.20;7.38;;;;;;;16.78;100.00;95908.03;4970099;28;20136;-74
2022/08/16 06:11:54;;;;;;;14.55;6.75;;;;;;;16.78;100.00;95913.44;4968699;28;20034;-74
2022/08/16 06:14:20;;;;;;;14.00;7.05;;;;;;;16.82;100.00;95917.16;4971493;28;20243;-74
2022/08/16 06:16:45;;;;;;;11.48;6.88;;;;;;;16.80;100.00;95921.22;4968075;28;20484;-75
2022/08/16 06:19:11;;;;;;;12.27;7.38;;;;;;;16.86;100.00;95923.53;4966984;28;20807;-74
2022/08/16 06:21:42;;;;;;;12.60;7.10;;;;;;;16.87;100.00;95921.63;4987982;28;20509;-74
2022/08/16 06:24:07;;;;;;;11.77;7.70;;;;;;;16.94;100.00;95925.53;4967174;28;20105;-75
2022/08/16 06:26:33;;;;;;;10.95;6.82;;;;;;;17.05;100.00;95922.66;4974089;28;20099;-74
2022/08/16 06:28:59;;;;;;;13.93;6.72;;;;;;;17.07;100.00;95925.84;4966775;28;20259;-75
2022/08/16 06:31:33;;;;;;;21.42;7.78;;;;;;;17.07;100.00;95920.44;4986102;28;20073;-75
2022/08/16 06:33:58;;;;;;;11.60;6.10;;;;;;;17.14;100.00;95920.81;4968018;28;20038;-74
2022/08/16 06:36:28;;;;;;;10.63;6.47;;;;;;;17.29;100.00;95923.19;4967313;28;20089;-74
2022/08/16 06:39:02;;;;;;;10.27;5.97;;;;;;;17.23;100.00;95919.00;4983613;28;20338;-74
2022/08/16 06:41:45;;;;;;;10.25;6.03;;;;;;;17.24;100.00;95913.28;4971893;28;20043;-74
2022/08/16 06:44:31;;;;;;;14.75;6.90;;;;;;;17.40;100.00;95918.34;4968004;28;20442;-74
2022/08/16 06:47:00;;;;;;;10.98;6.38;;;;;;;17.51;100.00;95912.44;4972849;28;20631;-74
2022/08/16 06:49:25;;;;;;;8.63;5.60;;;;;;;17.49;100.00;95916.53;4981807;28;20475;-74
2022/08/16 06:51:51;;;;;;;10.27;6.32;;;;;;;17.59;100.00;95921.72;4969745;28;20050;-73
2022/08/16 06:54:22;;;;;;;12.15;5.90;;;;;;;17.77;100.00;95919.97;4970527;28;20057;-74
2022/08/16 06:56:48;;;;;;;13.80;6.10;;;;;;;17.84;100.00;95924.97;4989584;28;20490;-74
2022/08/16 06:59:14;;;;;;;10.63;6.10;;;;;;;17.86;100.00;95928.16;4968395;28;20038;-74
2022/08/16 07:01:47;;;;;;;9.82;5.50;;;;;;;17.96;100.00;95922.47;4967860;28;20058;-74
2022/08/16 07:04:14;;;;;;;8.68;5.10;;;;;;;18.00;100.00;95932.41;4967639;28;20521;-74
2022/08/16 07:06:41;;;;;;;11.23;5.63;;;;;;;18.04;100.00;95917.13;4971582;28;20057;-74
2022/08/16 07:09:11;;;;;;;11.85;5.72;;;;;;;18.03;100.00;95922.84;4967899;28;20045;-74
2022/08/16 07:11:40;;;;;;;12.23;5.70;;;;;;;18.08;100.00;95920.81;4983245;28;20363;-74
2022/08/16 07:14:07;;;;;;;14.30;5.80;;;;;;;18.16;100.00;95919.28;4966428;28;20046;-74
2022/08/16 07:16:40;;;;;;;8.60;5.22;;;;;;;18.18;100.00;95921.66;4983420;28;20089;-74
2022/08/16 07:19:08;;;;;;;10.43;4.93;;;;;;;18.33;100.00;95919.38;4966996;28;20053;-74
2022/08/16 07:21:36;;;;;;;8.27;4.80;;;;;;;18.46;100.00;95906.06;4965649;28;20422;-73
2022/08/16 07:24:04;;;;;;;9.02;5.43;;;;;;;18.51;100.00;95917.53;4968489;28;20066;-74
2022/08/16 07:26:30;;;;;;;8.48;5.03;;;;;;;18.70;100.00;95921.97;4955367;28;20070;-74
2022/08/16 07:28:57;;;;;;;6.93;4.93;;;;;;;18.72;100.00;95920.53;4982973;28;20069;-74
2022/08/16 07:31:23;;;;;;;9.18;5.20;;;;;;;18.62;100.00;95916.16;4968160;28;20081;-73
2022/08/16 07:33:48;;;;;;;11.43;5.22;;;;;;;18.73;100.00;95926.75;4966173;28;20038;-74
2022/08/16 07:36:16;;;;;;;9.50;4.50;;;;;;;18.79;100.00;95923.59;4971765;28;20417;-74
2022/08/16 07:38:45;;;;;;;12.85;4.53;;;;;;;18.81;100.00;95929.50;4954876;28;20030;-74
2022/08/16 07:41:12;;;;;;;8.95;4.45;;;;;;;18.88;100.00;95931.75;4966712;28;20065;-74
2022/08/16 07:43:45;;;;;;;10.25;4.68;;;;;;;18.86;100.00;95926.66;4966971;28;20142;-74
2022/08/16 07:46:13;;;;;;;9.13;4.32;;;;;;;19.03;100.00;95933.22;4967862;28;20077;-74
2022/08/16 07:48:39;;;;;;;7.88;3.83;;;;;;;19.19;100.00;95926.25;4935198;28;20438;-74
2022/08/16 07:51:05;;;;;;;11.68;4.30;;;;;;;19.23;100.00;95929.16;4947450;28;20784;-74
2022/08/16 07:53:33;;;;;;;8.55;4.00;;;;;;;19.37;100.00;95924.34;4969058;28;20046;-74
2022/08/16 07:56:01;;;;;;;7.88;3.97;;;;;;;19.48;100.00;95929.19;4970087;28;20664;-74
2022/08/16 07:58:33;;;;;;;6.40;4.03;;;;;;;19.52;100.00;95934.75;4971516;28;20038;-73
2022/08/16 08:01:00;;;;;;;9.65;3.95;;;;;;;19.43;100.00;95928.53;4964920;28;20046;-74
2022/08/16 08:03:26;;;;;;;7.60;3.72;;;;;;;19.57;100.00;95936.56;4953306;28;20389;-74
2022/08/16 08:05:53;;;;;;;12.43;4.53;;;;;;;19.68;100.00;95944.03;4982658;28;20428;-74
2022/08/16 08:08:19;;;;;;;7.47;3.92;;;;;;;19.85;100.00;95943.28;4965443;28;20038;-74
2022/08/16 08:10:49;;;;;;;9.43;3.70;;;;;;;19.93;100.00;95942.47;4969501;28;20046;-74
2022/08/16 08:13:15;;;;;;;8.82;3.90;;;;;;;20.07;100.00;95939.56;4966545;28;20481;-74
2022/08/16 08:15:41;;;;;;;6.43;3.83;;;;;;;20.18;100.00;95938.13;4969154;28;20090;-74
2022/08/16 08:18:07;;;;;;;5.82;3.60;;;;;;;20.37;100.00;95937.75;4969572;28;20469;-74
2022/08/16 08:20:35;;;;;;;6.13;3.85;;;;;;;20.52;100.00;95937.25;4971784;28;20030;-74
2022/08/16 08:23:03;;;;;;;6.63;3.83;;;;;;;20.47;100.00;95944.81;4985529;28;20046;-74
2022/08/16 08:25:36;;;;;;;10.55;3.85;;;;;;;20.24;100.00;95939.56;4991260;28;20171;-74
2022/08/16 08:28:03;;;;;;;6.82;3.53;;;;;;;20.29;100.00;95930.44;4971135;28;20624;-74
2022/08/16 08:30:28;;;;;;;10.00;3.67;;;;;;;20.47;100.00;95942.09;4983841;28;20165;-74
2022/08/16 08:32:55;;;;;;;6.20;3.05;;;;;;;20.74;100.00;95938.16;4969033;28;20089;-74
2022/08/16 08:35:20;;;;;;;6.15;3.35;;;;;;;20.96;100.00;95945.28;4987940;28;20129;-74
2022/08/16 08:37:46;;;;;;;8.63;3.05;;;;;;;21.01;100.00;95945.91;4988021;28;20049;-74
2022/08/16 08:40:13;;;;;;;6.75;3.10;;;;;;;21.03;100.00;95938.19;4968373;28;20034;-73
2022/08/16 08:42:42;;;;;;;4.45;2.60;;;;;;;21.05;100.00;95944.09;4970610;28;20046;-74
2022/08/16 08:45:14;;;;;;;4.50;2.60;;;;;;;21.09;100.00;95936.09;4972020;28;20363;-74
2022/08/16 08:47:42;;;;;;;8.75;2.80;;;;;;;21.12;100.00;95941.66;4970227;28;20482;-74
2022/08/16 08:50:08;;;;;;;3.85;2.22;;;;;;;21.33;100.00;95940.94;4941690;28;20413;-74
2022/08/16 08:52:34;;;;;;;5.20;2.55;;;;;;;21.49;100.00;95946.63;4970353;28;20479;-73
2022/08/16 08:55:04;;;;;;;6.10;2.08;;;;;;;21.39;100.00;95943.13;4968834;28;20341;-74
2022/08/16 08:57:30;;;;;;;8.43;3.25;;;;;;;21.53;100.00;95947.53;4971821;28;20030;-74
2022/08/16 09:00:17;;;;;;;7.25;2.53;;;;;;;21.84;100.00;95950.66;4973747;28;20497;-74
2022/08/16 09:02:44;;;;;;;5.63;2.45;;;;;;;21.80;100.00;95954.41;4970836;28;20517;-74
2022/08/16 09:05:11;;;;;;;10.35;2.80;;;;;;;21.90;100.00;95943.88;4972349;28;20046;-74
2022/08/16 09:07:37;;;;;;;12.95;2.40;;;;;;;21.68;100.00;95955.09;4974686;28;20030;-74
2022/08/16 09:10:05;;;;;;;4.70;1.95;;;;;;;21.76;100.00;95954.25;4973051;28;20264;-74
2022/08/16 09:12:33;;;;;;;6.57;2.15;;;;;;;22.09;100.00;95957.03;4958209;28;20104;-74
2022/08/16 09:15:07;;;;;;;4.97;2.00;;;;;;;22.14;100.00;95958.78;4969947;28;20034;-74
2022/08/16 09:17:33;;;;;;;6.22;2.40;;;;;;;22.29;100.00;95958.16;4975093;28;20133;-74
2022/08/16 09:19:59;;;;;;;6.68;2.10;;;;;;;22.45;100.00;95956.38;4972957;28;20113;-74
2022/08/16 09:22:27;;;;;;;5.85;2.20;;;;;;;22.55;100.00;95951.63;4968384;28;20412;-74
2022/08/16 09:24:53;;;;;;;5.35;2.15;;;;;;;22.75;100.00;95950.78;4972031;28;20038;-74
2022/08/16 09:27:21;;;;;;;3.70;1.85;;;;;;;22.65;100.00;95956.69;4974196;28;20030;-74
2022/08/16 09:29:47;;;;;;;4.38;1.92;;;;;;;22.85;100.00;95961.28;4968981;28;20401;-74
2022/08/16 09:32:17;;;;;;;4.90;2.03;;;;;;;22.81;100.00;95957.63;4971664;28;20176;-74
2022/08/16 09:34:43;;;;;;;6.93;2.05;;;;;;;22.74;100.00;95960.88;4970928;28;20042;-74
2022/08/16 09:37:09;;;;;;;25.70;2.80;;;;;;;22.91;100.00;95959.91;4990407;28;20050;-75
2022/08/16 09:39:34;;;;;;;6.47;2.20;;;;;;;23.00;99.68;95957.88;4969211;28;20046;-75
2022/08/16 09:42:01;;;;;;;3.83;1.88;;;;;;;23.33;97.42;95957.75;4970738;28;20034;-75
2022/08/16 09:44:29;;;;;;;4.30;2.33;;;;;;;23.47;98.40;95964.81;4969339;28;20104;-75
2022/08/16 09:46:56;;;;;;;5.20;2.25;;;;;;;23.52;98.20;95967.31;4990183;28;20047;-75
2022/08/16 09:49:25;;;;;;;5.13;1.98;;;;;;;23.76;96.79;95966.50;4940348;28;20524;-75
2022/08/16 09:51:52;;;;;;;6.45;2.00;;;;;;;23.99;94.90;95967.59;4968229;28;20129;-75
2022/08/16 09:54:18;;;;;;;4.90;2.05;;;;;;;23.67;94.66;95963.13;4968726;28;20696;-75
2022/08/16 09:56:44;;;;;;;6.80;2.15;;;;;;;23.73;93.54;95962.50;4969457;28;20208;-75
2022/08/16 09:59:12;;;;;;;5.07;2.40;;;;;;;24.06;92.26;95959.59;4973290;28;20034;-76
2022/08/16 10:01:38;;;;;;;3.25;1.95;;;;;;;24.02;92.65;95966.09;4972228;28;20038;-75
2022/08/16 10:04:04;;;;;;;4.82;2.13;;;;;;;24.36;91.36;95968.28;4970251;28;20051;-75
2022/08/16 10:06:30;;;;;;;5.07;2.20;;;;;;;24.38;91.18;95965.97;4969134;28;20077;-72
2022/08/16 10:08:56;;;;;;;5.32;2.30;;;;;;;24.41;89.77;95961.75;4973097;28;20410;-72
2022/08/16 10:14:07;;;;;;;5.35;2.58;;;;;;;24.74;90.96;95964.97;4970324;28;20039;-72
2022/08/16 10:16:33;;;;;;;4.75;2.20;;;;;;;24.74;89.56;95961.44;4971214;28;20480;-72
2022/08/16 10:18:59;;;;;;;3.15;2.00;;;;;;;24.98;89.71;95968.69;4967717;28;20031;-73
2022/08/16 10:21:25;;;;;;;3.40;2.10;;;;;;;25.51;87.94;95961.78;4966255;28;20054;-75
2022/08/16 10:23:53;;;;;;;6.57;2.10;;;;;;;25.78;86.04;95960.09;4970187;28;20177;-74
2022/08/16 10:26:19;;;;;;;5.13;2.20;;;;;;;26.08;84.65;95960.34;4967772;28;20545;-74
2022/08/16 10:28:48;;;;;;;7.15;2.45;;;;;;;26.62;82.89;95958.69;4624966;28;10000006;-74
2022/08/16 10:31:13;;;;;;;3.65;2.05;;;;;;;26.78;80.62;95956.63;4966637;28;20393;-74
2022/08/16 10:33:39;;;;;;;5.55;2.50;;;;;;;27.02;79.89;95960.94;4968230;28;21091;-74
2022/08/16 10:36:06;;;;;;;4.75;2.42;;;;;;;26.50;80.29;95962.38;4966124;28;20096;-74
2022/08/16 10:38:34;;;;;;;3.58;2.30;;;;;;;26.75;80.54;95960.06;4969221;28;20456;-74
2022/08/16 10:41:00;;;;;;;4.53;2.38;;;;;;;26.79;78.61;95955.47;4966999;28;20398;-74
2022/08/16 10:43:26;;;;;;;8.50;2.63;;;;;;;26.76;79.63;95966.34;4967046;28;20048;-74
2022/08/16 10:45:52;;;;;;;7.20;2.38;;;;;;;27.63;76.20;95961.94;4984439;28;20045;-74
2022/08/16 10:48:18;;;;;;;4.60;2.35;;;;;;;27.80;73.51;95966.91;4965930;28;20438;-74
2022/08/16 10:50:44;;;;;;;4.25;2.03;;;;;;;27.78;73.25;95963.72;4965429;28;20270;-74
2022/08/16 10:53:09;;;;;;;13.00;2.30;;;;;;;28.29;71.82;95961.28;4968700;28;20133;-74
2022/08/16 10:55:41;;;;;;;4.70;2.10;;;;;;;28.55;63.69;95965.91;4965545;28;20351;-74
2022/08/16 10:58:10;;;;;;;8.50;2.95;;;;;;;27.91;65.50;95964.31;4967446;28;20051;-74
2022/08/16 11:00:40;;;;;;;5.18;2.40;;;;;;;27.84;70.12;95962.25;4967082;28;20129;-74
2022/08/16 11:03:08;;;;;;;6.10;2.20;;;;;;;27.04;71.88;95966.88;4969764;28;20726;-74
2022/08/16 11:05:37;;;;;;;6.28;2.03;;;;;;;26.65;74.05;95963.44;4971430;28;20042;-74
2022/08/16 11:08:06;;;;;;;5.43;2.40;;;;;;;28.34;64.10;95962.94;4970685;28;20039;-74
2022/08/16 11:10:35;;;;;;;5.47;2.20;;;;;;;31.14;46.61;95959.66;4965607;28;20046;-74
2022/08/16 11:13:02;;;;;;;5.18;2.10;;;;;;;33.21;37.77;95964.56;4968144;28;20430;-74
2022/08/16 11:15:30;;;;;;;4.35;2.13;;;;;;;32.98;37.40;95965.91;4963909;28;20030;-74
2022/08/16 11:17:56;;;;;;;4.40;2.17;;;;;;;30.39;44.49;95964.97;4966917;28;20124;-74
2022/08/16 11:20:21;;;;;;;3.25;2.00;;;;;;;29.00;54.83;95969.53;4965600;28;20407;-74
2022/08/16 11:22:50;;;;;;;3.30;2.03;;;;;;;30.97;47.63;95963.16;4967796;28;20392;-74
2022/08/16 11:25:18;;;;;;;4.18;2.20;;;;;;;33.62;34.73;95961.06;4964032;28;20104;-73
2022/08/16 11:27:44;;;;;;;4.68;2.30;;;;;;;34.47;35.46;95957.41;4971719;28;20968;-74
2022/08/16 11:30:13;;;;;;;5.07;2.25;;;;;;;36.81;29.40;95965.78;4963112;28;20106;-74
2022/08/16 11:32:43;;;;;;;3.42;1.90;;;;;;;38.14;28.20;95960.56;4976924;28;20461;-74